Terminal Aerodrome Forecast
Issued by NWS

Home | Current Version | Previous Version | Text Only | Print | Product List | Glossary On
Versions: 1 2 3 4 5 6 7 8 9 10 11 12 13
000
FTUS43 KMQT 031137
TAFIWD
TAF
KIWD 031137Z 0312/0412 20011G16KT P6SM -SHRA BKN040 OVC100
     FM031500 19011G18KT P6SM VCSH BKN100
     FM031800 21009G16KT P6SM -SHRA BKN040
     FM032300 20004KT P6SM -SHRA OVC030
     FM040900 19003KT 6SM -SHRA BR OVC008
      AMD LTD TO CLD VIS AND WIND=

USA.gov is the U.S. government's official web portal to all federal, state and local government web resources and services.